Etusivu
METAR-TAF:

METAR-TAF

Lentoasemat :

Schaffen

Diest, Belgia

Leveyspiiri: 51-00N, Pituuspiiri: 005-04E, korkeus merenpinnasta: 30 m

Tämänhetkinen sää

Tämä raportti tehtiin 31 minuuttia sitten, kello 21.55 UTC
Tuuli 7 kn lännestä/luoteesta
Lämpötila 6°C
Kosteus 93%
Ilmanpaine 1012 hPa
Näkyvyys 10 km tai enemmän

METAR: EBDT 182155Z AUTO 30007KT 9999 FEW033/// BKN050/// OVC075/// 06/05 Q1012 BLU

Aika: 23:26 (22:26 UTC)


TAF: puuttuu

Säähavainnot ja -ennusteet yli 4000 lentoasemalta (METAR- ja TAF-raportit).

Käytössä olevat sääasemat on merkitty karttaan keltaisilla ja punaisilla pisteillä.

Aseta hiiri pisteen päälle nähdäksesi sääaseman nimen.

Klikkaa sitten nähdäksesi säähavainnot ja -ennusteet.

Kartan vaihtaminen: klikkaa mustalla rastilla varustettuja vihreitä pisteitä, niin voit zoomata sisään; viivalla varustettua vihreää pistettä, niin voit zoomata ulos tai vihreitä nuolia, niin pääset viereisille kartoille.


METAR-TAF: